createdAt,value
2022-10-04T00:00:01.557Z,42.75897447700742
2022-10-04T00:15:02.204Z,42.793098514844395
2022-10-04T00:30:01.883Z,43.22542788662748
2022-10-04T00:45:01.554Z,42.7296049171385
2022-10-04T01:00:02.184Z,43.112190450107995
2022-10-04T01:15:01.831Z,42.93494701914967
2022-10-04T01:30:01.522Z,43.083310199196355
2022-10-04T01:45:02.188Z,43.145878585048045
2022-10-04T02:00:01.837Z,42.95333259677174
2022-10-04T02:15:01.460Z,42.5715835868359
2022-10-04T02:30:02.143Z,42.89667017659436
2022-10-04T02:45:01.793Z,43.17400243238858
2022-10-04T03:00:01.382Z,43.08328898051447
2022-10-04T03:15:02.027Z,42.599072218796856
2022-10-04T03:30:01.689Z,42.485566711255856
2022-10-04T03:45:01.320Z,42.49699019510759
2022-10-04T04:00:01.937Z,42.43405854151499
2022-10-04T04:15:01.748Z,42.57224487408685
2022-10-04T04:30:01.350Z,42.930088624437424
2022-10-04T04:45:02.327Z,43.049818723854024
2022-10-04T05:00:02.036Z,43.66628194355587
2022-10-04T05:15:01.708Z,44.39546014248287
2022-10-04T05:30:02.350Z,44.88122164493249
2022-10-04T05:45:01.947Z,44.57823867375375
2022-10-04T06:00:04.493Z,43.71988849575359
2022-10-04T06:15:02.406Z,42.57778062493692
2022-10-04T06:30:02.049Z,41.958256212918215
2022-10-04T06:45:01.652Z,40.66708552627417
2022-10-04T07:00:02.244Z,40.37474006738099
2022-10-04T07:15:01.863Z,40.013228213010045
2022-10-04T07:30:01.489Z,39.06982033777738
2022-10-04T07:45:02.086Z,39.24799850500157
2022-10-04T08:00:01.698Z,39.64499868750079
2022-10-04T08:15:02.316Z,40.44505791987522
2022-10-04T08:30:01.971Z,35.55460092983968
2022-10-04T08:45:01.604Z,37.362180956862815
2022-10-04T09:00:02.213Z,32.29605307612698
2022-10-04T09:15:01.866Z,30.686833193033298
2022-10-04T09:30:01.507Z,29.011008253704322
2022-10-04T09:45:02.121Z,30.521960181872583
2022-10-04T10:00:01.719Z,28.499158221658202
2022-10-04T10:15:01.353Z,28.352538673493434
2022-10-04T10:30:01.982Z,27.104675937322714
2022-10-04T10:45:01.603Z,26.851161953080783
2022-10-04T11:00:02.190Z,25.5572013202809
2022-10-04T11:15:01.824Z,24.745215130346654
2022-10-04T11:30:01.420Z,24.9889570065908
2022-10-04T11:45:02.047Z,24.473973176294535
2022-10-04T12:00:01.643Z,24.59445785687774
2022-10-04T12:15:01.264Z,23.624342122925302
2022-10-04T12:30:01.917Z,23.715539421838535
2022-10-04T12:45:01.920Z,23.423302934850433
2022-10-04T13:00:02.498Z,23.340362780389786
2022-10-04T13:15:02.153Z,23.90076862860955
2022-10-04T13:30:01.835Z,23.72806080317179
2022-10-04T13:45:02.493Z,23.794221819855775
2022-10-04T14:00:02.117Z,24.53441036483844
2022-10-04T14:15:01.776Z,23.79150431702135
2022-10-04T14:30:02.463Z,24.589794241740673
2022-10-04T14:45:02.064Z,25.42318941112418
2022-10-04T15:00:01.689Z,29.619921376432465
2022-10-04T15:15:02.322Z,30.609667167045583
2022-10-04T15:30:01.928Z,31.339874531627842
2022-10-04T15:45:01.580Z,31.141015844590797
2022-10-04T16:00:02.189Z,34.1429810116738
2022-10-04T16:15:01.801Z,36.000664714251315
2022-10-04T16:30:25.601Z,38.284962531618106
2022-10-04T16:45:01.520Z,39.50406950776605
2022-10-04T17:00:02.115Z,40.75140516849483
2022-10-04T17:15:01.745Z,41.34909277976612
2022-10-04T17:30:01.405Z,41.721559958269665
2022-10-04T17:45:02.052Z,42.10496492050226
2022-10-04T18:00:01.656Z,42.13255877554148
2022-10-04T18:15:02.321Z,42.11973472899994
2022-10-04T18:30:01.981Z,42.36472839184493
2022-10-04T18:45:01.606Z,42.882965467937666
2022-10-04T19:00:02.232Z,42.286615669144105
2022-10-04T19:15:01.860Z,42.314521299511725
2022-10-04T19:30:01.479Z,42.96423235932822
2022-10-04T19:45:02.139Z,42.7984449145784
2022-10-04T20:00:01.768Z,42.70717576896824
2022-10-04T20:15:01.394Z,42.62727603677886
2022-10-04T20:30:02.154Z,42.81528219704228
2022-10-04T20:45:02.117Z,42.57062757726411
2022-10-04T21:00:01.712Z,42.62824036471829
2022-10-04T21:15:02.342Z,42.770936283944195
2022-10-04T21:30:01.992Z,42.67996744753191
2022-10-04T21:45:01.641Z,42.89683348913262
2022-10-04T22:00:02.255Z,43.00517228953546
2022-10-04T22:15:01.883Z,43.11346378602969
2022-10-04T22:30:01.543Z,43.32942006448816
2022-10-04T22:45:02.182Z,43.24392135281309
2022-10-04T23:00:01.812Z,42.85704966587578
2022-10-04T23:15:02.461Z,43.11971419878537
2022-10-04T23:30:02.084Z,43.39978880646585
2022-10-04T23:45:01.702Z,43.463525983493724
